Goose Valley (237) Station Data

Red Flag Warning: No
Fire Weather Zone: 250
SDGE Region: Ramona
Lat/Lon: 33.073/-116.845

Observations

Time Wind Speed/Gust Temp(F) RH Fuel Moist Fuel Temp(F) Dewpt(F) Tmax(F) Tmin(F) Accum Precip 10-min Precip SL Press(mb)
5/24 8:30am 283 1 G 5 66° 65% - - 53° 66° 52.5° - - -
5/24 8:20am 154 1 G 5 64° 68% - - 53° 64.9° 52.5° - - -
5/24 8:10am 220 3 G 6 64° 69% - - 53° 64.5° 52.5° - - -
5/24 8:00am 237 2 G 5 64° 67% - - 53° 64.5° 52.5° - - -
5/24 7:50am 327 3 G 8 62° 69% - - 52° 62.9° 52.5° - - -
5/24 7:40am 10 3 G 6 60° 75% - - 53° 61.7° 52.5° - - -
5/24 7:30am 46 2 G 4 59° 77% - - 52° 59.8° 52.5° - - -
5/24 7:20am 200 1 G 3 59° 79% - - 52° 59.8° 52.5° - - -
5/24 7:10am 221 3 G 6 59° 77% - - 51° 59.8° 52.5° - - -
5/24 7:00am 321 2 G 6 58° 78% - - 51° 59.8° 52.5° - - -
5/24 6:50am 113 1 G 3 57° 80% - - 51° 59.8° 52.5° - - -
5/24 6:40am 155 3 G 5 56° 82% - - 50° 59.8° 52.5° - - -
5/24 6:30am 195 1 G 3 55° 82% - - 50° 59.8° 52.5° - - -
5/24 6:20am 209 1 G 2 54° 84% - - 49° 59.8° 52.5° - - -
5/24 6:10am 355 1 G 3 54° 85% - - 49° 59.8° 52.5° - - -
5/24 6:00am 6 2 G 3 53° 85% - - 49° 59.8° 52.5° - - -
5/24 5:50am 12 0 G 2 53° 85% - - 49° 59.8° 52.5° - - -
5/24 5:40am 154 0 G 2 53° 85% - - 48° 59.8° 52.5° - - -
5/24 5:30am 181 1 G 2 53° 84% - - 48° 59.8° 52.7° - - -
5/24 5:20am 0 0 G 0 53° 85% - - 49° 59.8° 53° - - -
5/24 5:10am 3 0 G 0 54° 85% - - 49° 59.8° 53° - - -
5/24 5:00am 2 2 G 3 53° 85% - - 49° 59.8° 53° - - -
5/24 4:50am 21 1 G 3 53° 84% - - 49° 59.8° 53.1° - - -
5/24 4:40am 360 1 G 3 54° 84% - - 49° 59.8° 53.4° - - -
5/24 4:30am 353 1 G 2 54° 83% - - 49° 59.8° 53.6° - - -
5/24 4:20am 359 0 G 1 54° 83% - - 49° 59.8° 53.8° - - -
5/24 4:10am 335 0 G 2 54° 83% - - 49° 59.8° 54° - - -
5/24 4:00am 197 0 G 2 54° 82% - - 49° 59.8° 54.1° - - -
5/24 3:50am 352 1 G 2 54° 83% - - 49° 59.8° 54.1° - - -
5/24 3:40am 26 1 G 2 54° 82% - - 49° 59.8° 54.1° - - -
5/24 3:30am 180 0 G 1 55° 82% - - 49° 59.8° 54.2° - - -
5/24 3:20am 0 0 G 0 55° 82% - - 49° 59.8° 54.7° - - -
5/24 3:10am 344 0 G 2 55° 82% - - 49° 59.8° 54.7° - - -
5/24 3:00am 351 1 G 2 55° 82% - - 50° 59.8° 55° - - -
5/24 2:50am 18 1 G 2 55° 81% - - 50° 59.8° 55.1° - - -
5/24 2:40am 340 0 G 1 56° 80% - - 50° 59.8° 55.3° - - -
5/24 2:30am 15 1 G 2 56° 79% - - 50° 59.8° 55.9° - - -
5/24 2:20am 30 0 G 1 57° 79% - - 50° 59.8° 56.3° - - -
5/24 2:10am 353 1 G 2 57° 78% - - 50° 59.8° 56.6° - - -
5/24 2:00am 359 1 G 2 57° 78% - - 50° 59.8° 57° - - -
5/24 1:50am 58 1 G 2 57° 78% - - 50° 59.8° 57° - - -
5/24 1:40am 0 0 G 0 57° 77% - - 50° 59.8° 57.1° - - -
5/24 1:30am 238 1 G 2 58° 76% - - 50° 59.8° 57.4° - - -
5/24 1:20am 125 1 G 3 58° 77% - - 50° 59.8° 57.5° - - -
5/24 1:10am 307 1 G 2 58° 76% - - 51° 59.8° 57.8° - - -
5/24 1:00am 4 1 G 2 59° 76% - - 51° 59.8° 58.2° - - -
5/24 12:50am 337 1 G 2 59° 76% - - 51° 59.8° 58.3° - - -
5/24 12:40am 6 2 G 3 58° 76% - - 51° 59.8° 58.3° - - -
5/24 12:30am 353 1 G 2 59° 75% - - 51° 59.8° 58.4° - - -
5/24 12:20am 3 1 G 2 59° 74% - - 51° 59.8° 58.7° - - -
5/24 12:10am 352 0 G 1 59° 73% - - 51° 59.8° 59.2° - - -
5/24 12:00am 183 0 G 1 60° 72% - - 51° 91.5° 54° - - -
5/23 11:50pm 344 0 G 1 61° 70% - - 51° 91.5° 54° - - -
5/23 11:40pm 14 0 G 1 61° 70% - - 51° 91.5° 54° - - -
5/23 11:30pm 344 0 G 1 61° 70% - - 51° 91.5° 54° - - -
5/23 11:20pm 351 0 G 2 61° 69% - - 51° 91.5° 54° - - -
5/23 11:10pm 1 2 G 3 62° 68% - - 51° 91.5° 54° - - -
5/23 11:00pm 3 0 G 1 63° 65% - - 51° 91.5° 54° - - -
5/23 10:50pm 0 0 G 0 63° 65% - - 51° 91.5° 54° - - -
5/23 10:40pm 234 0 G 2 63° 64% - - 51° 91.5° 54° - - -
5/23 10:30pm 49 0 G 1 64° 62% - - 51° 91.5° 54° - - -
5/23 10:20pm 177 0 G 1 64° 63% - - 51° 91.5° 54° - - -
5/23 10:10pm 209 1 G 2 64° 62% - - 51° 91.5° 54° - - -
5/23 10:00pm 359 1 G 4 65° 64% - - 52° 91.5° 54° - - -
5/23 9:50pm 353 1 G 2 65° 64% - - 53° 91.5° 54° - - -
5/23 9:40pm 360 1 G 2 66° 63% - - 53° 91.5° 54° - - -
5/23 9:30pm 350 1 G 3 66° 62% - - 53° 91.5° 54° - - -
5/23 9:20pm 0 1 G 2 66° 62% - - 53° 91.5° 54° - - -
5/23 9:10pm 18 1 G 2 67° 61% - - 53° 91.5° 54° - - -
5/23 9:00pm 334 1 G 2 68° 59% - - 53° 91.5° 54° - - -
5/23 8:50pm 20 1 G 2 69° 58% - - 53° 91.5° 54° - - -
5/23 8:40pm 262 1 G 2 69° 57% - - 53° 91.5° 54° - - -
5/23 8:30pm 11 1 G 2 70° 55% - - 53° 91.5° 54° - - -
5/23 8:20pm 248 0 G 1 71° 54% - - 53° 91.5° 54° - - -
5/23 8:10pm 3 1 G 2 71° 52% - - 53° 91.5° 54° - - -
5/23 8:00pm 353 2 G 4 72° 51% - - 53° 91.5° 54° - - -
5/23 7:50pm 345 1 G 2 73° 50% - - 53° 91.5° 54° - - -
5/23 7:40pm 275 0 G 2 74° 48% - - 53° 91.5° 54° - - -
5/23 7:30pm 267 1 G 2 74° 47% - - 53° 91.5° 54° - - -
5/23 7:20pm 246 1 G 3 76° 44% - - 52° 91.5° 54° - - -
5/23 7:10pm 255 2 G 4 77° 42% - - 52° 91.5° 54° - - -
5/23 7:00pm 245 2 G 6 77° 40% - - 51° 91.5° 54° - - -
5/23 6:50pm 259 3 G 6 78° 38% - - 51° 91.5° 54° - - -
5/23 6:40pm 265 3 G 9 79° 37% - - 50° 91.5° 54° - - -
5/23 6:30pm 261 4 G 9 81° 34% - - 50° 91.5° 54° - - -
5/23 6:20pm 277 3 G 7 83° 31% - - 49° 91.5° 54° - - -
5/23 6:10pm 259 3 G 7 83° 31% - - 49° 91.5° 54° - - -
5/23 6:00pm 255 5 G 9 84° 31% - - 49° 91.5° 54° - - -
5/23 5:50pm 260 3 G 9 85° 31% - - 50° 91.5° 54° - - -
5/23 5:40pm 256 3 G 7 85° 31% - - 51° 91.5° 54° - - -
5/23 5:30pm 252 3 G 6 85° 31% - - 51° 91.5° 54° - - -
5/23 5:20pm 255 2 G 6 86° 31% - - 51° 91.5° 54° - - -
5/23 5:10pm 256 3 G 6 85° 31% - - 51° 91.5° 54° - - -
5/23 5:00pm 262 3 G 6 84° 31% - - 51° 91.5° 54° - - -
5/23 4:50pm 240 4 G 8 85° 30% - - 50° 91.5° 54° - - -
5/23 4:40pm 243 1 G 5 86° 28% - - 49° 91.5° 54° - - -
5/23 4:30pm 340 2 G 5 85° 28% - - 48° 91.5° 54° - - -
5/23 4:20pm 248 2 G 5 84° 29% - - 48° 91.5° 54° - - -
5/23 4:10pm 249 3 G 8 83° 29% - - 48° 91.5° 54° - - -
5/23 4:00pm 243 4 G 8 83° 30% - - 49° 91.5° 54° - - -
5/23 3:50pm 256 3 G 8 83° 31% - - 49° 91.5° 54° - - -
5/23 3:40pm 249 4 G 9 82° 31% - - 48° 91.5° 54° - - -
5/23 3:30pm 280 3 G 9 82° 31% - - 49° 91.5° 54° - - -
5/23 3:20pm 254 4 G 9 81° 34% - - 50° 91.5° 54° - - -
5/23 3:10pm 269 4 G 9 82° 36% - - 52° 91.5° 54° - - -
5/23 3:00pm 294 3 G 7 81° 38% - - 54° 91.5° 54° - - -
5/23 2:50pm 294 3 G 7 81° 40% - - 54° 91.5° 54° - - -
5/23 2:40pm 272 3 G 7 81° 40% - - 55° 91.5° 54° - - -
5/23 2:30pm 297 3 G 8 81° 42% - - 55° 91.5° 54° - - -
5/23 2:20pm 276 3 G 7 81° 42% - - 56° 91.5° 54° - - -
5/23 2:10pm 261 3 G 7 80° 43% - - 55° 91.5° 54° - - -
5/23 2:00pm 264 3 G 10 81° 42% - - 56° 91.5° 54° - - -
5/23 1:50pm 283 3 G 7 80° 43% - - 56° 91.5° 54° - - -
5/23 1:40pm 288 3 G 8 81° 42% - - 55° 91.5° 54° - - -
5/23 1:30pm 314 3 G 8 80° 43% - - 56° 91.5° 54° - - -
5/23 1:20pm 286 3 G 8 80° 44% - - 56° 91.5° 54° - - -
5/23 1:10pm 300 3 G 9 80° 44% - - 56° 91.5° 54° - - -
5/23 1:00pm 292 3 G 9 81° 42% - - 56° 91.5° 54° - - -
5/23 12:50pm 301 3 G 10 82° 39% - - 55° 91.5° 54° - - -
5/23 12:40pm 286 3 G 8 83° 37% - - 54° 91.5° 54° - - -
5/23 12:30pm 273 3 G 9 85° 33% - - 53° 91.5° 54° - - -
5/23 12:20pm 279 3 G 8 87° 27% - - 50° 91.5° 54° - - -
5/23 12:10pm 292 2 G 7 88° 25% - - 47° 91.5° 54° - - -
5/23 12:00pm 275 4 G 10 87° 24% - - 47° 91.5° 54° - - -
5/23 11:50am 269 4 G 11 89° 25% - - 48° 91.5° 54° - - -
5/23 11:40am 259 3 G 9 91° 20% - - 44° 91.5° 54° - - -
5/23 11:30am 209 3 G 8 91° 16% - - 37° 91.5° 54° - - -
5/23 11:20am 184 3 G 7 90° 15% - - 37° 91° 54° - - -
5/23 11:10am 208 2 G 6 89° 16% - - 37° 89.8° 54° - - -
5/23 11:00am 266 2 G 5 88° 16% - - 36° 89.1° 54° - - -
5/23 10:50am 236 2 G 5 87° 17% - - 37° 88.6° 54° - - -
5/23 10:40am 184 3 G 6 88° 18% - - 40° 88.6° 54° - - -
5/23 10:30am 217 0 G 2 87° 18% - - 38° 88.2° 54° - - -
5/23 10:20am 198 2 G 3 86° 19% - - 38° 86.2° 54° - - -
5/23 10:10am 204 2 G 3 85° 19% - - 38° 85.5° 54° - - -
5/23 10:00am 140 2 G 4 85° 20% - - 39° 85.5° 54° - - -
5/23 9:50am 55 1 G 4 83° 22% - - 40° 84.3° 54° - - -
5/23 9:40am 128 2 G 4 82° 25% - - 43° 82.4° 54° - - -
5/23 9:30am 232 1 G 5 80° 27% - - 43° 81° 54° - - -
5/23 9:20am 218 2 G 5 80° 28% - - 44° 80.5° 54° - - -
5/23 9:10am 210 1 G 3 79° 27% - - 43° 79.9° 54° - - -
5/23 9:00am 176 1 G 2 79° 27% - - 43° 79.9° 54° - - -
5/23 8:50am 172 1 G 2 78° 29% - - 43° 79.3° 54° - - -
5/23 8:40am 38 1 G 2 76° 31% - - 43° 76.7° 54° - - -
5/23 8:30am 65 1 G 2 74° 35% - - 44° 75.1° 54° - - -
5/23 8:20am 254 0 G 2 71° 45% - - 49° 72.8° 54° - - -
5/23 8:10am 0 1 G 2 70° 46% - - 48° 70.6° 54° - - -
5/23 8:00am 356 1 G 2 69° 48% - - 49° 69.5° 54° - - -
5/23 7:50am 116 0 G 1 68° 47% - - 48° 69.1° 54° - - -
5/23 7:40am 169 0 G 2 68° 49% - - 48° 68.2° 54° - - -
5/23 7:30am 135 1 G 2 67° 51% - - 48° 67.5° 54° - - -
5/23 7:20am 160 1 G 2 66° 52% - - 48° 66.7° 54° - - -
5/23 7:10am 165 0 G 2 64° 58% - - 49° 65.2° 54° - - -
5/23 7:00am 69 0 G 1 63° 60% - - 49° 63.4° 54° - - -
5/23 6:50am 14 0 G 1 61° 62% - - 48° 61.4° 54° - - -
5/23 6:40am 24 1 G 2 60° 64% - - 48° 60.7° 54° - - -
5/23 6:30am 0 0 G 0 57° 72% - - 48° 60.6° 54° - - -
5/23 6:20am 16 0 G 1 55° 74% - - 47° 60.6° 54° - - -
5/23 6:10am 29 0 G 1 55° 74% - - 47° 60.6° 54° - - -
5/23 6:00am 341 1 G 2 54° 75% - - 47° 60.6° 54° - - -